Time;durP1;ratioP1;P1;durP2;ratioP2;P2;SDS_P1;SDS_P2;PMS_P1;PMS_P2;Temp;Humidity;BMP_temperature;BMP_pressure;BME280_temperature;BME280_humidity;BME280_pressure;Samples;Min_cycle;Max_cycle;Signal;HPM_P1;HPM_P2
2023/03/09 00:00:21;;;;;;;0.40;0.30;;;;;;;18.29;39.42;98994.69;4888375;28;96932;-73
2023/03/09 00:02:48;;;;;;;0.30;0.30;;;;;;;18.31;39.09;98999.91;4857799;28;96743;-71
2023/03/09 00:05:16;;;;;;;0.38;0.38;;;;;;;18.30;39.37;99004.50;4890872;28;96650;-71
2023/03/09 00:07:44;;;;;;;0.70;0.40;;;;;;;18.30;39.08;98999.09;4883675;28;96858;-71
2023/03/09 00:10:12;;;;;;;0.40;0.30;;;;;;;18.31;39.15;99003.47;4882329;28;97576;-71
2023/03/09 00:12:38;;;;;;;0.30;0.28;;;;;;;18.30;39.07;99004.50;4880928;28;97250;-72
2023/03/09 00:15:06;;;;;;;0.40;0.25;;;;;;;18.31;39.09;99005.34;4888745;28;97072;-72
2023/03/09 00:17:32;;;;;;;0.38;0.28;;;;;;;18.30;39.07;99000.97;4885105;28;96836;-72
2023/03/09 00:20:14;;;;;;;0.28;0.20;;;;;;;18.29;38.99;99008.28;4888798;28;97164;-72
2023/03/09 00:22:41;;;;;;;0.20;0.20;;;;;;;18.28;39.41;98981.31;4882051;28;97679;-71
2023/03/09 00:25:08;;;;;;;0.30;0.20;;;;;;;18.27;39.01;98976.91;4881294;28;98081;-72
2023/03/09 00:27:34;;;;;;;0.28;0.25;;;;;;;18.28;39.03;98970.44;4887607;28;98350;-72
2023/03/09 00:30:00;;;;;;;0.30;0.25;;;;;;;18.26;39.46;98969.81;4880387;28;97952;-71
2023/03/09 00:32:27;;;;;;;0.22;0.20;;;;;;;18.22;39.45;98991.09;4881746;28;96813;-71
2023/03/09 00:34:53;;;;;;;0.40;0.25;;;;;;;18.24;39.25;98991.75;4883216;28;97238;-72
2023/03/09 00:37:21;;;;;;;0.30;0.20;;;;;;;18.25;39.34;99001.56;4884167;28;97050;-73
2023/03/09 00:39:47;;;;;;;0.25;0.20;;;;;;;18.27;39.22;99004.91;4875686;28;98893;-72
2023/03/09 00:42:14;;;;;;;0.45;0.20;;;;;;;18.28;39.00;99000.31;4885725;28;97064;-71
2023/03/09 00:44:40;;;;;;;0.32;0.20;;;;;;;18.30;38.99;99000.97;4884523;28;96676;-72
2023/03/09 00:47:07;;;;;;;0.40;0.30;;;;;;;18.30;39.15;99004.50;4883814;28;96906;-72
2023/03/09 00:49:33;;;;;;;0.25;0.25;;;;;;;18.31;39.21;99013.50;4879728;28;98136;-71
2023/03/09 00:52:00;;;;;;;0.38;0.20;;;;;;;18.32;39.00;99020.63;4885823;28;97831;-72
2023/03/09 00:54:26;;;;;;;0.43;0.30;;;;;;;18.30;39.38;99031.69;4881996;28;97012;-72
2023/03/09 00:56:53;;;;;;;0.22;0.20;;;;;;;18.28;39.23;99047.34;4889136;28;96685;-72
2023/03/09 00:59:19;;;;;;;0.73;0.20;;;;;;;18.28;39.12;99049.25;4883390;28;96787;-71
2023/03/09 01:01:46;;;;;;;0.20;0.20;;;;;;;18.26;39.04;99044.00;4880298;28;97937;-72
2023/03/09 01:04:12;;;;;;;0.28;0.20;;;;;;;18.28;39.32;99036.50;4879074;28;96702;-71
2023/03/09 01:06:39;;;;;;;0.20;0.20;;;;;;;18.28;39.23;99035.66;4887622;28;96746;-72
2023/03/09 01:09:06;;;;;;;0.20;0.20;;;;;;;18.28;39.33;99039.22;4880173;28;96871;-71
2023/03/09 01:11:32;;;;;;;0.35;0.25;;;;;;;18.28;39.30;99043.81;4864263;28;99529;-72
2023/03/09 01:13:59;;;;;;;0.30;0.30;;;;;;;18.28;39.35;99044.66;4881597;28;96925;-72
2023/03/09 01:16:25;;;;;;;0.40;0.30;;;;;;;18.30;38.91;99045.28;4880246;28;96844;-72
2023/03/09 01:18:52;;;;;;;0.30;0.20;;;;;;;18.32;38.92;99061.38;4885466;28;97558;-71
2023/03/09 01:21:19;;;;;;;0.52;0.40;;;;;;;18.29;39.41;99068.06;4885705;28;97985;-71
2023/03/09 01:23:45;;;;;;;0.30;0.30;;;;;;;18.30;39.34;99077.06;4878884;28;96731;-71
2023/03/09 01:26:12;;;;;;;0.20;0.20;;;;;;;18.31;38.89;99078.72;4882948;28;96751;-71
2023/03/09 01:28:39;;;;;;;0.28;0.20;;;;;;;18.29;39.37;99078.09;4889169;28;98042;-71
2023/03/09 01:31:10;;;;;;;0.88;0.30;;;;;;;18.26;39.35;99086.66;4874212;28;97259;-71
2023/03/09 01:33:40;;;;;;;0.40;0.20;;;;;;;18.28;39.19;99085.41;4886177;28;97007;-72
2023/03/09 01:36:10;;;;;;;0.30;0.20;;;;;;;18.26;39.01;99090.19;4867301;28;97062;-72
2023/03/09 01:38:37;;;;;;;0.40;0.28;;;;;;;18.27;39.19;99086.44;4895024;28;96894;-71
2023/03/09 01:41:04;;;;;;;0.20;0.20;;;;;;;18.28;39.32;99090.00;4867176;28;100137;-73
2023/03/09 01:43:41;;;;;;;0.20;0.20;;;;;;;18.26;39.42;99090.19;4889229;28;96713;-71
2023/03/09 01:46:39;;;;;;;0.30;0.20;;;;;;;18.27;39.41;99082.88;4880648;28;96783;-71
2023/03/09 01:49:20;;;;;;;0.20;0.20;;;;;;;18.30;39.02;99091.47;4870653;28;97021;-72
2023/03/09 01:52:05;;;;;;;0.38;0.30;;;;;;;18.28;39.03;99090.84;4874171;28;97482;-71
2023/03/09 01:54:44;;;;;;;0.20;0.20;;;;;;;18.29;39.03;99092.53;4877108;28;96937;-71
2023/03/09 01:57:34;;;;;;;0.30;0.20;;;;;;;18.28;39.34;99107.16;4867467;28;97099;-71
2023/03/09 02:00:07;;;;;;;0.35;0.25;;;;;;;18.28;39.30;99106.31;4884601;28;97707;-72
2023/03/09 02:02:55;;;;;;;0.47;0.20;;;;;;;18.26;39.26;99102.94;4880224;28;97521;-72
2023/03/09 02:05:35;;;;;;;0.30;0.20;;;;;;;18.25;39.03;99104.00;4887208;28;97273;-72
2023/03/09 02:08:02;;;;;;;0.30;0.20;;;;;;;18.24;39.41;99116.75;4877470;28;96871;-71
2023/03/09 02:10:34;;;;;;;0.30;0.20;;;;;;;18.25;39.00;99123.00;4881171;28;99856;-72
2023/03/09 02:13:06;;;;;;;0.30;0.20;;;;;;;18.25;39.52;99114.84;4879867;28;97124;-71
2023/03/09 02:15:32;;;;;;;0.40;0.30;;;;;;;18.24;39.10;99124.06;4890020;28;96910;-71
2023/03/09 02:17:59;;;;;;;0.30;0.30;;;;;;;18.22;39.06;99137.84;4884180;28;96906;-71
2023/03/09 02:20:56;;;;;;;0.30;0.20;;;;;;;18.26;39.01;99147.28;4880019;28;97850;-71
2023/03/09 02:23:33;;;;;;;0.20;0.20;;;;;;;18.25;38.96;99132.00;4883892;28;96686;-72
2023/03/09 02:26:18;;;;;;;0.22;0.17;;;;;;;18.23;39.15;99134.09;4869542;28;97162;-71
2023/03/09 02:28:46;;;;;;;0.30;0.30;;;;;;;18.24;39.27;99138.47;4876378;28;96886;-71
2023/03/09 02:31:14;;;;;;;0.40;0.22;;;;;;;18.25;39.24;99142.03;4864605;28;99249;-71
2023/03/09 02:33:41;;;;;;;0.40;0.30;;;;;;;18.27;39.21;99150.81;4882646;28;98434;-71
2023/03/09 02:36:08;;;;;;;0.55;0.30;;;;;;;18.26;39.04;99141.84;4876289;28;98595;-72
2023/03/09 02:38:38;;;;;;;0.32;0.20;;;;;;;18.24;39.23;99157.50;4866064;28;96965;-72
2023/03/09 02:41:08;;;;;;;0.45;0.40;;;;;;;18.21;39.12;99168.75;4875521;28;98642;-71
2023/03/09 02:43:44;;;;;;;0.20;0.15;;;;;;;18.21;39.33;99181.50;4879053;28;100207;-71
2023/03/09 02:46:10;;;;;;;0.30;0.30;;;;;;;18.22;39.32;99185.91;4867059;28;98101;-72
2023/03/09 02:48:39;;;;;;;0.43;0.30;;;;;;;18.22;39.24;99192.19;4885052;28;97686;-72
2023/03/09 02:51:06;;;;;;;0.47;0.30;;;;;;;18.24;39.19;99191.97;4875119;28;100725;-72
2023/03/09 02:53:34;;;;;;;0.30;0.30;;;;;;;18.27;39.17;99188.88;4864300;28;98652;-72
2023/03/09 02:56:01;;;;;;;0.45;0.30;;;;;;;18.26;39.05;99176.31;4876278;28;96866;-72
2023/03/09 02:58:27;;;;;;;0.40;0.30;;;;;;;18.27;39.08;99176.13;4882854;28;96785;-71
2023/03/09 03:00:54;;;;;;;0.50;0.30;;;;;;;18.28;39.30;99171.53;4863842;28;99981;-72
2023/03/09 03:03:21;;;;;;;0.50;0.30;;;;;;;18.28;39.22;99179.69;4882892;28;97855;-72
2023/03/09 03:05:49;;;;;;;0.28;0.22;;;;;;;18.28;39.07;99180.53;4878383;28;96798;-72
2023/03/09 03:08:16;;;;;;;0.40;0.20;;;;;;;18.30;39.14;99188.47;4881166;28;96835;-73
2023/03/09 03:10:59;;;;;;;0.35;0.35;;;;;;;18.26;39.13;99184.47;4880562;28;97159;-71
2023/03/09 03:13:25;;;;;;;0.30;0.30;;;;;;;18.26;38.97;99184.47;4883741;28;97419;-71
2023/03/09 03:16:00;;;;;;;0.20;0.20;;;;;;;18.24;39.24;99179.25;4881394;28;96764;-71
2023/03/09 03:18:27;;;;;;;0.28;0.28;;;;;;;18.23;39.35;99188.44;4880852;28;96686;-72
2023/03/09 03:20:54;;;;;;;0.30;0.25;;;;;;;18.22;39.17;99188.63;4879189;28;97320;-71
2023/03/09 03:23:22;;;;;;;0.30;0.30;;;;;;;18.23;39.28;99193.03;4878713;28;97999;-71
2023/03/09 03:25:51;;;;;;;0.40;0.30;;;;;;;18.25;39.16;99190.94;4868826;28;97213;-71
2023/03/09 03:28:18;;;;;;;0.20;0.15;;;;;;;18.26;39.34;99206.22;4887583;28;96937;-72
2023/03/09 03:30:52;;;;;;;0.30;0.20;;;;;;;18.24;39.10;99220.00;4887525;28;98518;-72
2023/03/09 03:33:22;;;;;;;0.30;0.30;;;;;;;18.26;38.94;99227.94;4881245;28;99582;-71
2023/03/09 03:35:50;;;;;;;0.38;0.30;;;;;;;18.23;39.09;99231.06;4888095;28;96847;-72
2023/03/09 03:38:17;;;;;;;0.30;0.20;;;;;;;18.23;39.30;99228.34;4883028;28;97208;-71
2023/03/09 03:40:43;;;;;;;0.20;0.20;;;;;;;18.25;38.98;99221.69;4882890;28;99280;-72
2023/03/09 03:43:11;;;;;;;0.30;0.20;;;;;;;18.25;39.37;99209.97;4883608;28;98640;-72
2023/03/09 03:45:40;;;;;;;0.30;0.30;;;;;;;18.23;39.10;99229.19;4886765;28;97042;-72
2023/03/09 03:48:08;;;;;;;0.25;0.25;;;;;;;18.21;39.26;99228.53;4863936;28;98460;-71
2023/03/09 03:50:35;;;;;;;0.85;0.40;;;;;;;18.22;39.11;99240.25;4878136;28;99267;-72
2023/03/09 03:53:02;;;;;;;0.95;0.30;;;;;;;18.21;39.25;99247.56;4871132;28;98739;-72
2023/03/09 03:55:29;;;;;;;0.50;0.30;;;;;;;18.21;39.04;99253.00;4888127;28;96988;-72
2023/03/09 03:57:56;;;;;;;0.30;0.20;;;;;;;18.19;39.17;99262.38;4880501;28;97201;-71
2023/03/09 04:00:23;;;;;;;0.25;0.20;;;;;;;18.22;38.89;99265.56;4880900;28;96915;-73
2023/03/09 04:02:52;;;;;;;0.28;0.20;;;;;;;18.23;38.99;99244.66;4877922;28;97386;-71
2023/03/09 04:05:30;;;;;;;0.35;0.30;;;;;;;18.22;39.21;99251.13;4885971;28;96817;-72
2023/03/09 04:07:57;;;;;;;0.30;0.30;;;;;;;18.23;39.43;99269.94;4880718;28;96801;-72
2023/03/09 04:10:24;;;;;;;0.20;0.20;;;;;;;18.21;39.05;99263.88;4877067;28;97130;-71
2023/03/09 04:12:51;;;;;;;0.35;0.30;;;;;;;18.22;39.21;99270.16;4881378;28;97699;-71
2023/03/09 04:15:18;;;;;;;0.38;0.30;;;;;;;18.20;39.42;99281.22;4876430;28;96982;-72
2023/03/09 04:17:47;;;;;;;0.40;0.30;;;;;;;18.22;39.25;99283.72;4878038;28;97037;-71
2023/03/09 04:20:15;;;;;;;0.40;0.30;;;;;;;18.22;39.10;99284.56;4880536;28;96915;-71
2023/03/09 04:22:43;;;;;;;0.30;0.30;;;;;;;18.20;38.92;99286.66;4879122;28;100477;-71
2023/03/09 04:25:12;;;;;;;0.22;0.20;;;;;;;18.22;39.08;99281.84;4867106;28;96734;-71
2023/03/09 04:27:39;;;;;;;0.45;0.35;;;;;;;18.22;39.26;99286.44;4881843;28;97017;-72
2023/03/09 04:30:32;;;;;;;0.30;0.20;;;;;;;18.21;39.13;99298.34;4873388;28;96861;-72
2023/03/09 04:33:00;;;;;;;0.30;0.30;;;;;;;18.23;38.95;99301.72;4876351;28;99461;-72
2023/03/09 04:35:27;;;;;;;0.50;0.40;;;;;;;18.22;38.85;99303.59;4862526;28;97208;-72
2023/03/09 04:37:57;;;;;;;1.13;0.30;;;;;;;18.24;39.00;99308.84;4880947;28;96732;-71
2023/03/09 04:40:23;;;;;;;0.22;0.20;;;;;;;18.25;39.13;99316.78;4853724;28;97399;-72
2023/03/09 04:42:52;;;;;;;0.30;0.20;;;;;;;18.23;39.15;99310.72;4871680;28;99188;-71
2023/03/09 04:45:19;;;;;;;0.20;0.20;;;;;;;18.22;39.42;99314.47;4873932;28;97099;-72
2023/03/09 04:47:47;;;;;;;0.65;0.30;;;;;;;18.20;38.87;99324.69;4876565;28;96545;-71
2023/03/09 04:50:15;;;;;;;0.30;0.20;;;;;;;18.22;39.24;99333.47;4882047;28;97019;-71
2023/03/09 04:52:49;;;;;;;0.40;0.37;;;;;;;18.22;38.93;99327.22;4874653;28;99097;-72
2023/03/09 04:55:17;;;;;;;0.38;0.30;;;;;;;18.20;38.92;99327.41;4877176;28;96880;-72
2023/03/09 04:57:44;;;;;;;0.28;0.20;;;;;;;18.21;39.25;99330.97;4876355;28;96898;-72
2023/03/09 05:00:11;;;;;;;0.35;0.30;;;;;;;18.20;38.96;99334.72;4880461;28;98585;-71
2023/03/09 05:02:38;;;;;;;0.40;0.30;;;;;;;18.19;38.94;99342.03;4864228;28;98065;-72
2023/03/09 05:05:08;;;;;;;0.30;0.30;;;;;;;18.19;39.33;99338.47;4878584;28;96674;-72
2023/03/09 05:07:35;;;;;;;0.30;0.20;;;;;;;18.20;38.91;99346.44;4878688;28;96845;-71
2023/03/09 05:10:05;;;;;;;0.40;0.30;;;;;;;18.23;39.34;99354.19;4883564;28;99258;-71
2023/03/09 05:12:34;;;;;;;0.35;0.30;;;;;;;18.22;39.19;99357.09;4873631;28;96843;-72
2023/03/09 05:15:04;;;;;;;0.80;0.40;;;;;;;18.24;39.17;99358.59;4865042;28;96841;-71
2023/03/09 05:17:33;;;;;;;0.38;0.30;;;;;;;18.20;39.04;99357.28;4865490;28;97301;-72
2023/03/09 05:20:00;;;;;;;0.28;0.20;;;;;;;18.20;39.19;99359.16;4872798;28;98973;-73
2023/03/09 05:22:28;;;;;;;0.40;0.30;;;;;;;18.20;39.19;99365.44;4882843;28;96689;-71
2023/03/09 05:24:56;;;;;;;0.50;0.32;;;;;;;18.18;38.92;99366.69;4885835;28;96759;-72
2023/03/09 05:27:23;;;;;;;0.55;0.30;;;;;;;18.19;39.25;99368.34;4877650;28;97349;-72
2023/03/09 05:29:51;;;;;;;0.52;0.32;;;;;;;18.17;38.94;99382.13;4877678;28;97703;-71
2023/03/09 05:32:18;;;;;;;0.40;0.30;;;;;;;18.17;39.18;99384.84;4879959;28;96844;-71
2023/03/09 05:34:46;;;;;;;0.40;0.30;;;;;;;18.20;38.86;99389.06;4878177;28;97031;-71
2023/03/09 05:37:13;;;;;;;1.00;0.30;;;;;;;18.20;39.00;99370.88;4869888;28;96670;-72
2023/03/09 05:39:40;;;;;;;0.30;0.30;;;;;;;18.19;38.89;99377.34;4874911;28;99018;-71
2023/03/09 05:42:07;;;;;;;0.45;0.40;;;;;;;18.20;39.29;99373.59;4858289;28;98287;-72
2023/03/09 05:44:35;;;;;;;0.50;0.38;;;;;;;18.22;39.13;99365.25;4879122;28;97184;-72
2023/03/09 05:47:02;;;;;;;0.47;0.30;;;;;;;18.20;39.08;99359.16;4880589;28;97116;-71
2023/03/09 05:49:30;;;;;;;0.22;0.20;;;;;;;18.21;39.13;99355.41;4881576;28;97406;-72
2023/03/09 05:51:59;;;;;;;0.30;0.30;;;;;;;18.20;38.99;99360.00;4871273;28;99415;-71
2023/03/09 05:54:25;;;;;;;0.40;0.32;;;;;;;18.22;38.87;99365.25;4879906;28;96676;-72
2023/03/09 05:56:56;;;;;;;0.40;0.30;;;;;;;18.19;38.89;99357.50;4876958;28;96896;-71
2023/03/09 05:59:23;;;;;;;0.40;0.30;;;;;;;18.20;39.29;99370.03;4860803;28;100393;-72
2023/03/09 06:01:50;;;;;;;0.32;0.25;;;;;;;18.18;39.28;99362.09;4875741;28;97210;-71
2023/03/09 06:04:21;;;;;;;0.30;0.20;;;;;;;18.17;39.33;99365.84;4875204;28;96716;-73
2023/03/09 06:06:52;;;;;;;0.30;0.30;;;;;;;18.18;38.86;99370.22;4876205;28;97059;-72
2023/03/09 06:09:23;;;;;;;0.55;0.40;;;;;;;18.18;39.19;99366.69;4877237;28;96933;-71
2023/03/09 06:11:49;;;;;;;0.32;0.30;;;;;;;18.17;39.18;99368.56;4861265;28;99356;-72
2023/03/09 06:14:18;;;;;;;0.50;0.40;;;;;;;18.18;38.83;99381.09;4879427;28;97043;-71
2023/03/09 06:16:44;;;;;;;0.30;0.20;;;;;;;18.16;38.79;99394.03;4883507;28;97410;-72
2023/03/09 06:19:11;;;;;;;0.52;0.40;;;;;;;18.19;39.30;99398.25;4878410;28;99193;-73
2023/03/09 06:21:39;;;;;;;0.30;0.30;;;;;;;18.18;39.01;99402.84;4875032;28;97642;-71
2023/03/09 06:24:06;;;;;;;0.50;0.30;;;;;;;18.20;38.84;99417.06;4877027;28;96982;-71
2023/03/09 06:26:33;;;;;;;0.40;0.30;;;;;;;18.21;39.18;99429.63;4875503;28;96701;-72
2023/03/09 06:29:06;;;;;;;0.30;0.30;;;;;;;18.23;38.90;99426.72;4880293;28;96672;-72
2023/03/09 06:31:36;;;;;;;0.63;0.45;;;;;;;18.20;38.77;99433.38;4862287;28;98176;-71
2023/03/09 06:34:03;;;;;;;0.30;0.30;;;;;;;18.18;39.00;99426.44;4885157;28;96800;-71
2023/03/09 06:36:30;;;;;;;0.40;0.40;;;;;;;18.17;38.88;99439.19;4880029;28;96637;-72
2023/03/09 06:38:56;;;;;;;0.43;0.40;;;;;;;18.17;39.28;99433.75;4865830;28;98400;-71
2023/03/09 06:41:31;;;;;;;0.52;0.30;;;;;;;18.14;39.19;99445.03;4872032;28;98674;-72
2023/03/09 06:44:08;;;;;;;0.80;0.30;;;;;;;18.17;39.05;99449.22;4877853;28;97203;-72
2023/03/09 06:46:37;;;;;;;0.30;0.30;;;;;;;18.17;38.95;99460.09;4864152;28;98048;-72
2023/03/09 06:49:04;;;;;;;0.43;0.30;;;;;;;18.16;39.12;99461.97;4871947;28;98840;-72
2023/03/09 06:51:31;;;;;;;0.50;0.45;;;;;;;18.18;39.15;99469.94;4874101;28;97975;-71
2023/03/09 06:53:57;;;;;;;0.30;0.30;;;;;;;18.19;38.76;99468.91;4864273;28;97197;-71
2023/03/09 06:56:29;;;;;;;0.30;0.20;;;;;;;18.21;38.91;99469.53;4875085;28;96754;-71
2023/03/09 06:58:56;;;;;;;0.30;0.30;;;;;;;18.21;39.23;99470.38;4874581;28;100445;-71
2023/03/09 07:01:23;;;;;;;0.30;0.30;;;;;;;18.21;39.11;99466.81;4857417;28;98884;-71
2023/03/09 07:03:52;;;;;;;0.43;0.40;;;;;;;18.22;39.30;99473.94;4883503;28;96807;-70
2023/03/09 07:06:19;;;;;;;0.30;0.30;;;;;;;18.22;38.99;99485.66;4865403;28;97039;-71
2023/03/09 07:08:46;;;;;;;0.40;0.40;;;;;;;18.18;38.98;99484.34;4875525;28;96687;-71
2023/03/09 07:11:12;;;;;;;0.40;0.30;;;;;;;18.18;38.83;99506.09;4881521;28;97283;-71
2023/03/09 07:13:39;;;;;;;0.40;0.32;;;;;;;18.17;38.74;99517.16;4875705;28;97287;-72
2023/03/09 07:16:06;;;;;;;0.40;0.30;;;;;;;18.15;39.03;99528.22;4880915;28;96979;-72
2023/03/09 07:18:33;;;;;;;0.40;0.38;;;;;;;18.17;39.07;99526.16;4882302;28;97796;-72
2023/03/09 07:21:01;;;;;;;0.40;0.30;;;;;;;18.16;38.81;99529.91;4870023;28;97247;-71
2023/03/09 07:23:28;;;;;;;0.30;0.30;;;;;;;18.17;39.12;99533.47;4880999;28;96777;-72
2023/03/09 07:25:59;;;;;;;0.43;0.30;;;;;;;18.17;39.08;99530.75;4884631;28;96774;-72
2023/03/09 07:28:26;;;;;;;0.50;0.40;;;;;;;18.18;39.08;99546.00;4883588;28;96711;-71
2023/03/09 07:30:53;;;;;;;0.47;0.40;;;;;;;18.20;38.86;99549.38;4879871;28;99653;-72
2023/03/09 07:33:20;;;;;;;0.40;0.30;;;;;;;18.21;39.05;99560.06;4885942;28;96791;-71
2023/03/09 07:35:46;;;;;;;0.50;0.40;;;;;;;18.24;38.83;99559.69;4883195;28;96953;-71
2023/03/09 07:38:13;;;;;;;0.40;0.40;;;;;;;18.22;38.79;99564.47;4877189;28;97742;-72
2023/03/09 07:40:39;;;;;;;0.30;0.30;;;;;;;18.19;39.11;99578.44;4879863;28;97281;-71
2023/03/09 07:43:06;;;;;;;0.40;0.40;;;;;;;18.17;39.02;99583.22;4884385;28;97021;-72
2023/03/09 07:45:51;;;;;;;0.30;0.30;;;;;;;18.19;38.95;99589.31;4875780;28;96883;-72
2023/03/09 07:48:18;;;;;;;0.50;0.40;;;;;;;18.18;39.20;99592.22;4881216;28;97038;-71
2023/03/09 07:50:45;;;;;;;0.40;0.40;;;;;;;18.18;39.39;99594.94;4877756;28;97444;-71
2023/03/09 07:53:11;;;;;;;0.50;0.40;;;;;;;18.20;38.84;99592.88;4878668;28;96718;-72
2023/03/09 07:55:38;;;;;;;0.50;0.40;;;;;;;18.17;39.07;99585.94;4879943;28;96743;-71
2023/03/09 07:58:05;;;;;;;0.50;0.40;;;;;;;18.20;39.03;99584.72;4885430;28;99445;-71
2023/03/09 08:00:32;;;;;;;0.50;0.45;;;;;;;18.20;39.05;99584.72;4878130;28;97527;-73
2023/03/09 08:03:00;;;;;;;0.50;0.40;;;;;;;18.18;38.96;99590.34;4878285;28;97363;-71
2023/03/09 08:05:27;;;;;;;0.40;0.40;;;;;;;18.19;38.81;99596.63;4874758;28;96877;-71
2023/03/09 08:07:54;;;;;;;0.40;0.40;;;;;;;18.17;39.20;99599.50;4884388;28;97184;-71
2023/03/09 08:10:20;;;;;;;0.40;0.40;;;;;;;18.20;38.99;99601.00;4874903;28;97174;-71
2023/03/09 08:12:49;;;;;;;0.60;0.35;;;;;;;18.21;39.18;99602.69;4875273;28;96614;-70
2023/03/09 08:15:18;;;;;;;0.50;0.40;;;;;;;18.19;38.99;99596.63;4883089;28;96774;-71
2023/03/09 08:17:45;;;;;;;0.60;0.50;;;;;;;18.20;38.85;99604.56;4878291;28;99319;-70
2023/03/09 08:20:11;;;;;;;0.38;0.30;;;;;;;18.19;38.81;99615.63;4875267;28;97185;-71
2023/03/09 08:22:38;;;;;;;0.90;0.70;;;;;;;18.18;39.24;99622.94;4873957;28;98986;-71
2023/03/09 08:25:07;;;;;;;0.65;0.55;;;;;;;18.16;39.28;99626.88;4880102;28;97133;-72
2023/03/09 08:27:38;;;;;;;0.30;0.30;;;;;;;18.20;39.00;99618.16;4880640;28;96951;-70
2023/03/09 08:30:05;;;;;;;0.38;0.38;;;;;;;18.20;38.88;99612.72;4876503;28;96839;-71
2023/03/09 08:32:32;;;;;;;0.40;0.40;;;;;;;18.18;38.73;99609.34;4877523;28;96689;-70
2023/03/09 08:34:58;;;;;;;0.50;0.50;;;;;;;18.18;39.13;99617.50;4878676;28;97282;-71
2023/03/09 08:37:25;;;;;;;0.50;0.47;;;;;;;18.19;38.91;99629.22;4876574;28;97764;-71
2023/03/09 08:39:52;;;;;;;0.30;0.30;;;;;;;18.19;39.13;99649.09;4874621;28;96595;-71
2023/03/09 08:42:18;;;;;;;0.40;0.40;;;;;;;18.18;39.23;99660.97;4864548;28;96730;-71
2023/03/09 08:44:45;;;;;;;0.82;0.50;;;;;;;18.17;39.03;99666.59;4873532;28;97364;-71
2023/03/09 08:47:12;;;;;;;0.50;0.40;;;;;;;18.17;38.90;99655.75;4875706;28;97660;-71
2023/03/09 08:49:40;;;;;;;0.50;0.50;;;;;;;18.17;39.09;99659.31;4875462;28;97439;-71
2023/03/09 08:52:08;;;;;;;0.38;0.30;;;;;;;18.17;39.14;99672.88;4876050;28;97028;-71
2023/03/09 08:54:34;;;;;;;0.30;0.30;;;;;;;18.20;39.12;99677.94;4875053;28;96806;-71
2023/03/09 08:57:01;;;;;;;0.60;0.50;;;;;;;18.18;38.79;99668.28;4877227;28;96917;-71
2023/03/09 08:59:27;;;;;;;0.65;0.60;;;;;;;18.19;38.98;99667.25;4877928;28;96800;-71
2023/03/09 09:01:54;;;;;;;0.60;0.40;;;;;;;18.18;39.12;99660.16;4878690;28;97226;-71
2023/03/09 09:04:20;;;;;;;0.50;0.40;;;;;;;18.18;38.95;99673.72;4879523;28;97237;-71
2023/03/09 09:06:47;;;;;;;0.30;0.30;;;;;;;18.18;38.93;99671.84;4879267;28;96767;-72
2023/03/09 09:09:13;;;;;;;0.50;0.40;;;;;;;18.20;38.83;99648.06;4853898;28;97196;-72
2023/03/09 09:11:40;;;;;;;0.40;0.40;;;;;;;18.22;38.96;99666.88;4879022;28;97043;-71
2023/03/09 09:14:07;;;;;;;0.55;0.43;;;;;;;18.21;38.87;99673.34;4880415;28;96682;-71
2023/03/09 09:16:34;;;;;;;0.70;0.60;;;;;;;18.23;39.08;99688.44;4892383;28;97509;-71
2023/03/09 09:19:00;;;;;;;0.50;0.50;;;;;;;18.20;38.87;99672.50;4892964;28;98436;-71
2023/03/09 09:21:28;;;;;;;0.50;0.50;;;;;;;18.20;39.12;99677.94;4890925;28;97162;-71
2023/03/09 09:23:54;;;;;;;0.57;0.50;;;;;;;18.19;39.08;99683.56;4868897;28;96677;-71
2023/03/09 09:26:21;;;;;;;0.50;0.40;;;;;;;18.17;39.08;99686.47;4892198;28;97252;-71
2023/03/09 09:28:48;;;;;;;0.50;0.50;;;;;;;18.16;39.19;99687.50;4893001;28;97723;-71
2023/03/09 09:31:19;;;;;;;0.85;0.40;;;;;;;18.15;38.82;99706.72;4878502;28;96719;-71
2023/03/09 09:33:50;;;;;;;0.57;0.55;;;;;;;18.16;38.87;99713.84;4877164;28;96988;-71
2023/03/09 09:36:18;;;;;;;0.50;0.40;;;;;;;18.17;39.09;99710.94;4876566;28;97102;-71
2023/03/09 09:38:46;;;;;;;0.68;0.50;;;;;;;18.16;39.19;99720.13;4873064;28;97333;-71
2023/03/09 09:41:36;;;;;;;0.77;0.60;;;;;;;18.17;38.79;99710.09;4872976;28;96844;-71
2023/03/09 09:44:08;;;;;;;0.85;0.60;;;;;;;18.20;38.99;99712.44;4852392;28;97184;-71
2023/03/09 09:46:36;;;;;;;0.50;0.50;;;;;;;18.18;39.32;99722.66;4879394;28;99493;-74
2023/03/09 09:49:03;;;;;;;0.60;0.50;;;;;;;18.16;39.07;99714.69;4883390;28;97417;-71
2023/03/09 09:51:59;;;;;;;0.52;0.40;;;;;;;18.17;39.24;99704.66;4875509;28;98357;-71
2023/03/09 09:54:55;;;;;;;0.80;0.57;;;;;;;18.22;38.86;99700.34;4881099;28;96749;-71
2023/03/09 09:57:35;;;;;;;0.60;0.40;;;;;;;18.21;38.81;99698.66;4876945;28;96916;-72
2023/03/09 10:00:05;;;;;;;1.15;0.68;;;;;;;18.21;38.72;99695.94;4880020;28;96680;-71
2023/03/09 10:02:41;;;;;;;0.63;0.50;;;;;;;18.21;39.24;99700.53;4881885;28;97762;-71
2023/03/09 10:05:28;;;;;;;0.60;0.60;;;;;;;18.19;38.96;99708.03;4865760;28;97201;-71
2023/03/09 10:07:56;;;;;;;0.50;0.45;;;;;;;18.19;39.05;99721.63;4856547;28;97842;-71
2023/03/09 10:10:28;;;;;;;0.82;0.50;;;;;;;18.19;38.79;99727.91;4878828;28;96637;-71
2023/03/09 10:13:01;;;;;;;0.57;0.50;;;;;;;18.22;38.91;99748.41;4883934;28;97138;-71
2023/03/09 10:15:34;;;;;;;0.57;0.50;;;;;;;18.22;38.76;99754.69;4875228;28;96883;-71
2023/03/09 10:18:19;;;;;;;0.52;0.45;;;;;;;18.22;39.09;99751.13;4890625;28;97998;-71
2023/03/09 10:20:49;;;;;;;0.82;0.60;;;;;;;18.20;39.18;99745.03;4854610;28;98817;-71
2023/03/09 10:23:24;;;;;;;0.60;0.60;;;;;;;18.21;39.04;99738.56;4869449;28;96709;-71
2023/03/09 10:25:53;;;;;;;;;;;;;;;18.22;38.98;99740.25;4873026;28;96608;-71
2023/03/09 10:28:23;;;;;;;0.65;0.60;;;;;;;18.23;39.21;99742.78;4885741;28;97589;-71
2023/03/09 10:31:01;;;;;;;0.73;0.50;;;;;;;18.23;38.75;99750.09;4872920;28;97004;-71
2023/03/09 10:33:42;;;;;;;0.52;0.50;;;;;;;18.24;38.94;99749.91;4885911;28;96831;-71
2023/03/09 10:36:18;;;;;;;0.80;0.60;;;;;;;18.26;39.20;99747.88;4870562;28;96722;-71
2023/03/09 10:38:44;;;;;;;0.80;0.65;;;;;;;18.23;38.91;99750.94;4868681;28;97638;-71
2023/03/09 10:41:19;;;;;;;0.70;0.60;;;;;;;18.21;38.93;99738.56;4868024;28;97504;-71
2023/03/09 10:43:46;;;;;;;0.52;0.50;;;;;;;18.21;38.72;99739.41;4879963;28;96753;-71
2023/03/09 10:46:15;;;;;;;0.70;0.50;;;;;;;18.21;39.13;99744.84;4884623;28;96706;-72
2023/03/09 10:48:43;;;;;;;0.63;0.63;;;;;;;18.23;39.00;99736.53;4882927;28;97469;-71
2023/03/09 10:51:32;;;;;;;0.52;0.52;;;;;;;18.22;38.97;99724.81;4887624;28;96729;-71
2023/03/09 10:54:20;;;;;;;0.50;0.50;;;;;;;18.22;38.74;99734.84;4885572;28;97201;-71
2023/03/09 10:56:46;;;;;;;0.77;0.60;;;;;;;18.18;39.20;99728.91;4883818;28;97271;-71
2023/03/09 10:59:16;;;;;;;0.50;0.40;;;;;;;18.21;38.77;99735.84;4876201;28;97788;-72
2023/03/09 11:01:45;;;;;;;0.77;0.50;;;;;;;18.21;38.84;99739.41;4881265;28;97763;-71
2023/03/09 11:04:21;;;;;;;0.70;0.70;;;;;;;18.23;39.10;99741.97;4870973;28;96969;-71
2023/03/09 11:06:56;;;;;;;0.50;0.50;;;;;;;18.21;38.75;99742.13;4872793;28;96771;-71
2023/03/09 11:09:34;;;;;;;;;;;;;;;18.24;38.94;99739.06;4874270;28;97681;-71
2023/03/09 11:12:20;;;;;;;0.65;0.60;;;;;;;18.26;39.15;99733.44;4873709;28;96755;-71
2023/03/09 11:14:56;;;;;;;0.70;0.70;;;;;;;18.25;39.05;99742.63;4885211;28;96799;-71
2023/03/09 11:17:42;;;;;;;0.60;0.60;;;;;;;18.26;38.68;99752.44;4870237;28;97055;-71
2023/03/09 11:20:15;;;;;;;0.98;0.65;;;;;;;18.25;38.89;99751.59;4866913;28;97966;-71
2023/03/09 11:23:04;;;;;;;0.68;0.50;;;;;;;18.22;38.87;99741.09;4880716;28;98384;-71
2023/03/09 11:25:49;;;;;;;0.80;0.65;;;;;;;18.23;38.89;99741.97;4869400;28;98633;-71
2023/03/09 11:28:29;;;;;;;0.50;0.50;;;;;;;18.24;38.89;99741.78;4874576;28;97147;-72
2023/03/09 11:30:56;;;;;;;0.70;0.65;;;;;;;18.23;39.23;99737.38;4890073;28;97041;-72
2023/03/09 11:33:24;;;;;;;0.60;0.60;;;;;;;18.21;39.05;99734.00;4871503;28;97628;-72
2023/03/09 11:35:54;;;;;;;0.57;0.57;;;;;;;18.20;39.31;99751.31;4865554;28;96781;-73
2023/03/09 11:38:22;;;;;;;0.70;0.70;;;;;;;18.24;39.00;99740.94;4874878;28;97318;-72
2023/03/09 11:40:59;;;;;;;0.90;0.70;;;;;;;18.24;38.94;99744.50;4868210;28;97282;-72
2023/03/09 11:43:37;;;;;;;0.82;0.70;;;;;;;18.23;39.24;99741.97;4882766;28;97581;-72
2023/03/09 11:46:08;;;;;;;0.57;0.55;;;;;;;18.22;38.91;99742.97;4879794;28;97176;-71